sensor_id;sensor_type;location;lat;lon;timestamp;pressure;altitude;pressure_sealevel;temperature;humidity
65054;BME280;51639;47.828;35.038;2022-08-21T00:02:24;99899.88;;;19.69;100.00
65054;BME280;51639;47.828;35.038;2022-08-21T00:17:26;99901.28;;;19.59;100.00
65054;BME280;51639;47.828;35.038;2022-08-21T00:32:29;99898.53;;;19.59;100.00
65054;BME280;51639;47.828;35.038;2022-08-21T00:47:31;99889.72;;;19.55;100.00
65054;BME280;51639;47.828;35.038;2022-08-21T01:02:34;99888.06;;;19.42;100.00
65054;BME280;51639;47.828;35.038;2022-08-21T01:17:36;99875.16;;;19.28;100.00
65054;BME280;51639;47.828;35.038;2022-08-21T01:32:39;99859.88;;;19.27;100.00
65054;BME280;51639;47.828;35.038;2022-08-21T01:47:42;99863.59;;;19.24;100.00
65054;BME280;51639;47.828;35.038;2022-08-21T02:02:45;99876.53;;;19.18;100.00
65054;BME280;51639;47.828;35.038;2022-08-21T02:17:49;99859.75;;;19.16;100.00
65054;BME280;51639;47.828;35.038;2022-08-21T02:32:51;99869.66;;;19.08;100.00
65054;BME280;51639;47.828;35.038;2022-08-21T02:47:59;99881.06;;;19.01;100.00
65054;BME280;51639;47.828;35.038;2022-08-21T03:03:04;99898.94;;;18.91;100.00
65054;BME280;51639;47.828;35.038;2022-08-21T03:18:08;99920.13;;;18.85;100.00
65054;BME280;51639;47.828;35.038;2022-08-21T03:33:11;99932.50;;;18.95;100.00
65054;BME280;51639;47.828;35.038;2022-08-21T03:48:15;99927.16;;;19.06;100.00
65054;BME280;51639;47.828;35.038;2022-08-21T04:03:18;99918.06;;;19.40;100.00
65054;BME280;51639;47.828;35.038;2022-08-21T04:18:21;99920.53;;;19.38;100.00
65054;BME280;51639;47.828;35.038;2022-08-21T04:33:24;99930.00;;;19.52;100.00
65054;BME280;51639;47.828;35.038;2022-08-21T04:48:26;99921.75;;;19.78;100.00
65054;BME280;51639;47.828;35.038;2022-08-21T05:03:29;99914.13;;;19.93;100.00
65054;BME280;51639;47.828;35.038;2022-08-21T05:18:33;99901.25;;;20.10;100.00
65054;BME280;51639;47.828;35.038;2022-08-21T05:33:35;99897.84;;;20.53;100.00
65054;BME280;51639;47.828;35.038;2022-08-21T05:48:41;99895.78;;;20.85;100.00
65054;BME280;51639;47.828;35.038;2022-08-21T06:03:43;99903.91;;;21.98;100.00
65054;BME280;51639;47.828;35.038;2022-08-21T06:18:45;99913.03;;;23.34;100.00
65054;BME280;51639;47.828;35.038;2022-08-21T06:33:47;99904.47;;;24.44;100.00
65054;BME280;51639;47.828;35.038;2022-08-21T06:48:49;99894.16;;;25.31;100.00
65054;BME280;51639;47.828;35.038;2022-08-21T07:03:51;99897.50;;;26.31;100.00
65054;BME280;51639;47.828;35.038;2022-08-21T07:18:53;99896.06;;;27.09;100.00
65054;BME280;51639;47.828;35.038;2022-08-21T07:33:55;99888.56;;;28.06;100.00
65054;BME280;51639;47.828;35.038;2022-08-21T07:48:57;99877.84;;;28.67;98.04
65054;BME280;51639;47.828;35.038;2022-08-21T08:03:59;99868.84;;;29.26;93.60
65054;BME280;51639;47.828;35.038;2022-08-21T08:19:01;99882.47;;;29.37;91.05
65054;BME280;51639;47.828;35.038;2022-08-21T08:34:04;99895.69;;;28.57;94.09
65054;BME280;51639;47.828;35.038;2022-08-21T08:49:19;99897.16;;;29.22;82.95
65054;BME280;51639;47.828;35.038;2022-08-21T09:04:26;99895.41;;;29.47;91.75
65054;BME280;51639;47.828;35.038;2022-08-21T09:19:49;99844.72;;;30.50;68.68
65054;BME280;51639;47.828;35.038;2022-08-21T09:35:16;99821.28;;;29.03;62.38
65054;BME280;51639;47.828;35.038;2022-08-21T09:50:26;99815.06;;;28.89;62.29
65054;BME280;51639;47.828;35.038;2022-08-21T10:05:30;99831.28;;;29.49;60.58
65054;BME280;51639;47.828;35.038;2022-08-21T10:20:42;99842.16;;;29.76;56.52
65054;BME280;51639;47.828;35.038;2022-08-21T10:36:18;99848.84;;;30.41;52.17
65054;BME280;51639;47.828;35.038;2022-08-21T11:07:10;99810.75;;;31.91;48.84
65054;BME280;51639;47.828;35.038;2022-08-21T11:22:26;99795.53;;;32.88;50.29
65054;BME280;51639;47.828;35.038;2022-08-21T11:37:45;99787.19;;;32.98;46.98
65054;BME280;51639;47.828;35.038;2022-08-21T11:53:15;99787.63;;;31.33;44.74
65054;BME280;51639;47.828;35.038;2022-08-21T12:08:38;99786.19;;;29.91;46.82
65054;BME280;51639;47.828;35.038;2022-08-21T12:23:48;99787.97;;;29.20;53.46
65054;BME280;51639;47.828;35.038;2022-08-21T12:53:58;99778.81;;;28.68;58.40
65054;BME280;51639;47.828;35.038;2022-08-21T13:09:06;99783.25;;;28.56;55.58
65054;BME280;51639;47.828;35.038;2022-08-21T13:24:34;99778.00;;;28.52;56.91
65054;BME280;51639;47.828;35.038;2022-08-21T13:39:51;99789.75;;;28.02;55.86
65054;BME280;51639;47.828;35.038;2022-08-21T13:55:09;99794.13;;;27.90;57.71
65054;BME280;51639;47.828;35.038;2022-08-21T14:10:18;99779.50;;;27.97;55.37
65054;BME280;51639;47.828;35.038;2022-08-21T14:40:26;99766.22;;;28.10;59.55
65054;BME280;51639;47.828;35.038;2022-08-21T14:55:28;99766.59;;;28.14;59.87
65054;BME280;51639;47.828;35.038;2022-08-21T15:10:32;99743.56;;;27.93;56.90
65054;BME280;51639;47.828;35.038;2022-08-21T15:25:36;99757.31;;;27.63;58.36
65054;BME280;51639;47.828;35.038;2022-08-21T15:40:43;99765.06;;;27.23;60.38
65054;BME280;51639;47.828;35.038;2022-08-21T15:55:53;99752.53;;;26.82;56.19
65054;BME280;51639;47.828;35.038;2022-08-21T16:10:55;99754.41;;;26.53;60.46
65054;BME280;51639;47.828;35.038;2022-08-21T16:25:58;99766.19;;;26.33;61.21
65054;BME280;51639;47.828;35.038;2022-08-21T16:41:01;99762.75;;;26.13;63.79
65054;BME280;51639;47.828;35.038;2022-08-21T16:56:06;99767.00;;;26.01;65.68
65054;BME280;51639;47.828;35.038;2022-08-21T17:11:20;99767.84;;;25.83;63.36
65054;BME280;51639;47.828;35.038;2022-08-21T17:26:38;99775.25;;;25.62;66.64
65054;BME280;51639;47.828;35.038;2022-08-21T17:41:40;99762.91;;;25.44;65.17
65054;BME280;51639;47.828;35.038;2022-08-21T17:56:43;99758.03;;;25.31;70.21
65054;BME280;51639;47.828;35.038;2022-08-21T18:11:45;99747.72;;;25.13;71.37
65054;BME280;51639;47.828;35.038;2022-08-21T18:26:48;99742.53;;;25.04;71.39
65054;BME280;51639;47.828;35.038;2022-08-21T18:41:51;99733.56;;;24.98;71.22
65054;BME280;51639;47.828;35.038;2022-08-21T18:56:53;99721.38;;;24.82;71.75
65054;BME280;51639;47.828;35.038;2022-08-21T19:11:55;99707.38;;;24.56;72.79
65054;BME280;51639;47.828;35.038;2022-08-21T19:26:58;99708.25;;;24.21;74.26
65054;BME280;51639;47.828;35.038;2022-08-21T19:42:00;99706.72;;;24.01;74.83
65054;BME280;51639;47.828;35.038;2022-08-21T19:57:04;99692.41;;;23.97;73.57
65054;BME280;51639;47.828;35.038;2022-08-21T20:12:08;99695.69;;;23.95;72.38
65054;BME280;51639;47.828;35.038;2022-08-21T20:27:19;99682.84;;;23.92;69.87
65054;BME280;51639;47.828;35.038;2022-08-21T20:42:23;99668.44;;;23.75;71.71
65054;BME280;51639;47.828;35.038;2022-08-21T20:57:28;99667.88;;;23.82;57.51
65054;BME280;51639;47.828;35.038;2022-08-21T21:12:39;99671.19;;;23.99;61.11
65054;BME280;51639;47.828;35.038;2022-08-21T21:27:46;99663.13;;;24.01;56.11
65054;BME280;51639;47.828;35.038;2022-08-21T22:14:18;99657.97;;;23.87;50.56
65054;BME280;51639;47.828;35.038;2022-08-21T22:29:17;99651.25;;;23.82;50.22
65054;BME280;51639;47.828;35.038;2022-08-21T22:44:25;99651.53;;;23.78;49.39
65054;BME280;51639;47.828;35.038;2022-08-21T22:59:31;99661.41;;;23.74;49.71
65054;BME280;51639;47.828;35.038;2022-08-21T23:14:35;99674.31;;;23.66;49.31
